sensor_id;sensor_type;location;lat;lon;timestamp;P1;durP1;ratioP1;P2;durP2;ratioP2
13706;SDS011;6925;47.816;13.072;2023-06-24T00:03:09;5.10;;;3.30;;
13706;SDS011;6925;47.816;13.072;2023-06-24T00:05:43;5.47;;;3.50;;
13706;SDS011;6925;47.816;13.072;2023-06-24T00:08:14;5.30;;;3.03;;
13706;SDS011;6925;47.816;13.072;2023-06-24T00:10:44;4.65;;;3.00;;
13706;SDS011;6925;47.816;13.072;2023-06-24T00:13:11;5.72;;;3.50;;
13706;SDS011;6925;47.816;13.072;2023-06-24T00:18:07;6.15;;;2.90;;
13706;SDS011;6925;47.816;13.072;2023-06-24T00:20:35;7.00;;;3.33;;
13706;SDS011;6925;47.816;13.072;2023-06-24T00:23:03;7.90;;;3.50;;
13706;SDS011;6925;47.816;13.072;2023-06-24T00:25:31;5.07;;;2.75;;
13706;SDS011;6925;47.816;13.072;2023-06-24T00:27:59;5.88;;;3.22;;
13706;SDS011;6925;47.816;13.072;2023-06-24T00:30:26;4.75;;;3.00;;
13706;SDS011;6925;47.816;13.072;2023-06-24T00:32:53;5.28;;;3.53;;
13706;SDS011;6925;47.816;13.072;2023-06-24T00:37:47;4.95;;;2.80;;
13706;SDS011;6925;47.816;13.072;2023-06-24T00:40:16;5.45;;;2.90;;
13706;SDS011;6925;47.816;13.072;2023-06-24T00:42:43;5.40;;;3.10;;
13706;SDS011;6925;47.816;13.072;2023-06-24T00:45:11;8.20;;;3.33;;
13706;SDS011;6925;47.816;13.072;2023-06-24T00:47:39;5.57;;;2.95;;
13706;SDS011;6925;47.816;13.072;2023-06-24T00:50:07;5.28;;;2.95;;
13706;SDS011;6925;47.816;13.072;2023-06-24T00:52:37;5.00;;;3.03;;
13706;SDS011;6925;47.816;13.072;2023-06-24T00:55:07;5.70;;;3.30;;
13706;SDS011;6925;47.816;13.072;2023-06-24T00:57:36;5.88;;;2.63;;
13706;SDS011;6925;47.816;13.072;2023-06-24T01:00:04;4.63;;;2.38;;
13706;SDS011;6925;47.816;13.072;2023-06-24T01:02:38;4.13;;;2.42;;
13706;SDS011;6925;47.816;13.072;2023-06-24T01:05:07;4.80;;;2.25;;
13706;SDS011;6925;47.816;13.072;2023-06-24T01:07:36;4.22;;;2.40;;
13706;SDS011;6925;47.816;13.072;2023-06-24T01:10:04;5.13;;;2.78;;
13706;SDS011;6925;47.816;13.072;2023-06-24T01:12:33;4.63;;;2.65;;
13706;SDS011;6925;47.816;13.072;2023-06-24T01:15:02;4.32;;;2.50;;
13706;SDS011;6925;47.816;13.072;2023-06-24T01:17:31;5.07;;;2.50;;
13706;SDS011;6925;47.816;13.072;2023-06-24T01:20:06;4.93;;;2.92;;
13706;SDS011;6925;47.816;13.072;2023-06-24T01:22:42;4.25;;;2.60;;
13706;SDS011;6925;47.816;13.072;2023-06-24T01:25:36;6.10;;;2.58;;
13706;SDS011;6925;47.816;13.072;2023-06-24T01:28:19;5.22;;;3.00;;
13706;SDS011;6925;47.816;13.072;2023-06-24T01:31:24;4.28;;;2.38;;
13706;SDS011;6925;47.816;13.072;2023-06-24T01:34:01;4.20;;;2.35;;
13706;SDS011;6925;47.816;13.072;2023-06-24T01:36:34;4.57;;;2.58;;
13706;SDS011;6925;47.816;13.072;2023-06-24T01:39:04;5.38;;;2.65;;
13706;SDS011;6925;47.816;13.072;2023-06-24T01:41:36;4.70;;;2.80;;
13706;SDS011;6925;47.816;13.072;2023-06-24T01:44:06;4.22;;;2.55;;
13706;SDS011;6925;47.816;13.072;2023-06-24T01:46:37;5.10;;;2.72;;
13706;SDS011;6925;47.816;13.072;2023-06-24T01:49:07;5.40;;;2.50;;
13706;SDS011;6925;47.816;13.072;2023-06-24T01:51:36;6.15;;;3.20;;
13706;SDS011;6925;47.816;13.072;2023-06-24T01:54:06;6.03;;;2.30;;
13706;SDS011;6925;47.816;13.072;2023-06-24T01:56:36;6.70;;;2.83;;
13706;SDS011;6925;47.816;13.072;2023-06-24T01:59:05;4.57;;;2.60;;
13706;SDS011;6925;47.816;13.072;2023-06-24T02:01:33;4.57;;;2.67;;
13706;SDS011;6925;47.816;13.072;2023-06-24T02:04:05;5.03;;;2.60;;
13706;SDS011;6925;47.816;13.072;2023-06-24T02:06:34;4.35;;;2.70;;
13706;SDS011;6925;47.816;13.072;2023-06-24T02:09:02;4.53;;;2.60;;
13706;SDS011;6925;47.816;13.072;2023-06-24T02:11:32;5.22;;;2.65;;
13706;SDS011;6925;47.816;13.072;2023-06-24T02:14:01;4.97;;;3.10;;
13706;SDS011;6925;47.816;13.072;2023-06-24T02:16:29;6.70;;;3.25;;
13706;SDS011;6925;47.816;13.072;2023-06-24T02:18:58;5.18;;;3.33;;
13706;SDS011;6925;47.816;13.072;2023-06-24T02:21:30;6.05;;;3.90;;
13706;SDS011;6925;47.816;13.072;2023-06-24T02:23:58;5.28;;;3.42;;
13706;SDS011;6925;47.816;13.072;2023-06-24T02:26:26;6.68;;;3.47;;
13706;SDS011;6925;47.816;13.072;2023-06-24T02:28:53;5.57;;;3.60;;
13706;SDS011;6925;47.816;13.072;2023-06-24T02:31:22;5.80;;;2.72;;
13706;SDS011;6925;47.816;13.072;2023-06-24T02:33:49;4.38;;;2.78;;
13706;SDS011;6925;47.816;13.072;2023-06-24T02:36:16;5.50;;;3.13;;
13706;SDS011;6925;47.816;13.072;2023-06-24T02:38:45;4.82;;;2.72;;
13706;SDS011;6925;47.816;13.072;2023-06-24T02:41:12;6.00;;;3.00;;
13706;SDS011;6925;47.816;13.072;2023-06-24T02:46:05;5.65;;;3.10;;
13706;SDS011;6925;47.816;13.072;2023-06-24T02:48:36;5.10;;;2.80;;
13706;SDS011;6925;47.816;13.072;2023-06-24T02:51:05;4.55;;;2.22;;
13706;SDS011;6925;47.816;13.072;2023-06-24T02:53:35;5.30;;;3.17;;
13706;SDS011;6925;47.816;13.072;2023-06-24T02:56:04;5.05;;;3.03;;
13706;SDS011;6925;47.816;13.072;2023-06-24T02:58:35;4.72;;;2.47;;
13706;SDS011;6925;47.816;13.072;2023-06-24T03:01:03;4.85;;;2.95;;
13706;SDS011;6925;47.816;13.072;2023-06-24T03:03:33;4.32;;;2.60;;
13706;SDS011;6925;47.816;13.072;2023-06-24T03:06:01;4.72;;;2.80;;
13706;SDS011;6925;47.816;13.072;2023-06-24T03:08:29;8.10;;;3.03;;
13706;SDS011;6925;47.816;13.072;2023-06-24T03:10:56;4.57;;;2.50;;
13706;SDS011;6925;47.816;13.072;2023-06-24T03:13:25;4.30;;;2.30;;
13706;SDS011;6925;47.816;13.072;2023-06-24T03:15:52;5.50;;;2.63;;
13706;SDS011;6925;47.816;13.072;2023-06-24T03:20:46;4.30;;;2.45;;
13706;SDS011;6925;47.816;13.072;2023-06-24T03:25:40;4.22;;;2.72;;
13706;SDS011;6925;47.816;13.072;2023-06-24T03:28:09;4.13;;;2.90;;
13706;SDS011;6925;47.816;13.072;2023-06-24T03:30:37;5.40;;;3.10;;
13706;SDS011;6925;47.816;13.072;2023-06-24T03:33:04;5.50;;;3.80;;
13706;SDS011;6925;47.816;13.072;2023-06-24T03:35:32;6.03;;;3.60;;
13706;SDS011;6925;47.816;13.072;2023-06-24T03:37:59;5.97;;;3.65;;
13706;SDS011;6925;47.816;13.072;2023-06-24T03:40:26;5.65;;;3.33;;
13706;SDS011;6925;47.816;13.072;2023-06-24T03:42:53;5.38;;;3.10;;
13706;SDS011;6925;47.816;13.072;2023-06-24T03:45:20;5.20;;;3.85;;
13706;SDS011;6925;47.816;13.072;2023-06-24T03:47:48;6.88;;;3.97;;
13706;SDS011;6925;47.816;13.072;2023-06-24T03:50:15;5.57;;;2.95;;
13706;SDS011;6925;47.816;13.072;2023-06-24T03:52:42;5.80;;;3.08;;
13706;SDS011;6925;47.816;13.072;2023-06-24T03:55:10;6.85;;;3.80;;
13706;SDS011;6925;47.816;13.072;2023-06-24T03:57:37;4.95;;;3.20;;
13706;SDS011;6925;47.816;13.072;2023-06-24T04:00:04;5.32;;;3.10;;
13706;SDS011;6925;47.816;13.072;2023-06-24T04:02:38;5.32;;;3.20;;
13706;SDS011;6925;47.816;13.072;2023-06-24T04:05:09;5.93;;;3.25;;
13706;SDS011;6925;47.816;13.072;2023-06-24T04:07:36;5.03;;;3.00;;
13706;SDS011;6925;47.816;13.072;2023-06-24T04:12:33;3.88;;;2.15;;
13706;SDS011;6925;47.816;13.072;2023-06-24T04:15:00;4.55;;;2.35;;
13706;SDS011;6925;47.816;13.072;2023-06-24T04:17:28;4.30;;;1.98;;
13706;SDS011;6925;47.816;13.072;2023-06-24T04:19:55;4.03;;;1.80;;
13706;SDS011;6925;47.816;13.072;2023-06-24T04:22:25;4.55;;;1.95;;
13706;SDS011;6925;47.816;13.072;2023-06-24T04:24:52;4.97;;;2.13;;
13706;SDS011;6925;47.816;13.072;2023-06-24T04:27:19;3.70;;;1.90;;
13706;SDS011;6925;47.816;13.072;2023-06-24T04:29:46;3.58;;;1.90;;
13706;SDS011;6925;47.816;13.072;2023-06-24T04:32:13;3.63;;;1.92;;
13706;SDS011;6925;47.816;13.072;2023-06-24T04:34:40;4.72;;;2.10;;
13706;SDS011;6925;47.816;13.072;2023-06-24T04:37:07;4.65;;;1.85;;
13706;SDS011;6925;47.816;13.072;2023-06-24T04:39:35;2.72;;;1.48;;
13706;SDS011;6925;47.816;13.072;2023-06-24T04:42:02;4.60;;;2.33;;
13706;SDS011;6925;47.816;13.072;2023-06-24T04:44:30;4.30;;;2.00;;
13706;SDS011;6925;47.816;13.072;2023-06-24T04:46:57;4.00;;;1.95;;
13706;SDS011;6925;47.816;13.072;2023-06-24T04:49:24;5.68;;;2.10;;
13706;SDS011;6925;47.816;13.072;2023-06-24T04:51:52;5.35;;;1.77;;
13706;SDS011;6925;47.816;13.072;2023-06-24T04:54:19;5.93;;;2.15;;
13706;SDS011;6925;47.816;13.072;2023-06-24T04:56:47;4.35;;;2.38;;
13706;SDS011;6925;47.816;13.072;2023-06-24T04:59:15;5.13;;;2.45;;
13706;SDS011;6925;47.816;13.072;2023-06-24T05:01:42;3.97;;;1.95;;
13706;SDS011;6925;47.816;13.072;2023-06-24T05:04:09;5.38;;;2.17;;
13706;SDS011;6925;47.816;13.072;2023-06-24T05:06:37;3.83;;;2.00;;
13706;SDS011;6925;47.816;13.072;2023-06-24T05:09:04;3.63;;;1.90;;
13706;SDS011;6925;47.816;13.072;2023-06-24T05:11:31;4.63;;;2.10;;
13706;SDS011;6925;47.816;13.072;2023-06-24T05:13:59;4.22;;;2.00;;
13706;SDS011;6925;47.816;13.072;2023-06-24T05:16:27;6.00;;;2.00;;
13706;SDS011;6925;47.816;13.072;2023-06-24T05:18:54;3.70;;;1.80;;
13706;SDS011;6925;47.816;13.072;2023-06-24T05:21:21;4.88;;;2.20;;
13706;SDS011;6925;47.816;13.072;2023-06-24T05:23:48;6.22;;;2.15;;
13706;SDS011;6925;47.816;13.072;2023-06-24T05:26:15;5.55;;;1.80;;
13706;SDS011;6925;47.816;13.072;2023-06-24T05:31:10;3.85;;;2.03;;
13706;SDS011;6925;47.816;13.072;2023-06-24T05:33:37;3.47;;;1.90;;
13706;SDS011;6925;47.816;13.072;2023-06-24T05:36:06;3.47;;;1.60;;
13706;SDS011;6925;47.816;13.072;2023-06-24T05:38:33;3.60;;;1.92;;
13706;SDS011;6925;47.816;13.072;2023-06-24T05:41:00;3.97;;;2.20;;
13706;SDS011;6925;47.816;13.072;2023-06-24T05:43:27;6.25;;;2.35;;
13706;SDS011;6925;47.816;13.072;2023-06-24T05:45:54;4.55;;;2.00;;
13706;SDS011;6925;47.816;13.072;2023-06-24T05:48:23;4.93;;;1.98;;
13706;SDS011;6925;47.816;13.072;2023-06-24T05:50:50;3.47;;;1.98;;
13706;SDS011;6925;47.816;13.072;2023-06-24T05:53:17;4.53;;;2.55;;
13706;SDS011;6925;47.816;13.072;2023-06-24T05:55:44;3.03;;;1.58;;
13706;SDS011;6925;47.816;13.072;2023-06-24T06:00:38;4.55;;;1.98;;
13706;SDS011;6925;47.816;13.072;2023-06-24T06:03:05;4.82;;;1.80;;
13706;SDS011;6925;47.816;13.072;2023-06-24T06:05:33;4.15;;;2.15;;
13706;SDS011;6925;47.816;13.072;2023-06-24T06:08:00;3.40;;;1.80;;
13706;SDS011;6925;47.816;13.072;2023-06-24T06:12:54;4.30;;;1.90;;
13706;SDS011;6925;47.816;13.072;2023-06-24T06:15:22;4.03;;;2.30;;
13706;SDS011;6925;47.816;13.072;2023-06-24T06:17:49;5.20;;;2.30;;
13706;SDS011;6925;47.816;13.072;2023-06-24T06:20:16;4.28;;;2.30;;
13706;SDS011;6925;47.816;13.072;2023-06-24T06:25:11;3.95;;;2.30;;
13706;SDS011;6925;47.816;13.072;2023-06-24T06:27:38;3.72;;;2.45;;
13706;SDS011;6925;47.816;13.072;2023-06-24T06:30:06;4.38;;;1.80;;
13706;SDS011;6925;47.816;13.072;2023-06-24T06:32:34;4.28;;;2.10;;
13706;SDS011;6925;47.816;13.072;2023-06-24T06:35:01;4.40;;;2.55;;
13706;SDS011;6925;47.816;13.072;2023-06-24T06:39:56;3.78;;;2.28;;
13706;SDS011;6925;47.816;13.072;2023-06-24T06:42:23;4.65;;;2.25;;
13706;SDS011;6925;47.816;13.072;2023-06-24T06:44:50;11.73;;;4.18;;
13706;SDS011;6925;47.816;13.072;2023-06-24T06:47:17;4.03;;;2.20;;
13706;SDS011;6925;47.816;13.072;2023-06-24T06:49:44;5.22;;;2.20;;
13706;SDS011;6925;47.816;13.072;2023-06-24T06:52:11;5.78;;;1.92;;
13706;SDS011;6925;47.816;13.072;2023-06-24T06:54:38;4.00;;;2.50;;
13706;SDS011;6925;47.816;13.072;2023-06-24T06:59:34;3.97;;;2.53;;
13706;SDS011;6925;47.816;13.072;2023-06-24T07:02:01;3.47;;;2.10;;
13706;SDS011;6925;47.816;13.072;2023-06-24T07:06:56;3.70;;;2.20;;
13706;SDS011;6925;47.816;13.072;2023-06-24T07:09:23;5.18;;;2.60;;
13706;SDS011;6925;47.816;13.072;2023-06-24T07:11:50;4.18;;;2.30;;
13706;SDS011;6925;47.816;13.072;2023-06-24T07:14:18;6.03;;;2.08;;
13706;SDS011;6925;47.816;13.072;2023-06-24T07:16:45;3.97;;;2.10;;
13706;SDS011;6925;47.816;13.072;2023-06-24T07:19:12;3.90;;;2.10;;
13706;SDS011;6925;47.816;13.072;2023-06-24T07:21:39;5.68;;;1.73;;
13706;SDS011;6925;47.816;13.072;2023-06-24T07:24:06;3.92;;;2.00;;
13706;SDS011;6925;47.816;13.072;2023-06-24T07:26:33;3.65;;;2.13;;
13706;SDS011;6925;47.816;13.072;2023-06-24T07:29:00;4.22;;;2.20;;
13706;SDS011;6925;47.816;13.072;2023-06-24T07:31:34;4.20;;;2.55;;
13706;SDS011;6925;47.816;13.072;2023-06-24T07:34:01;3.88;;;2.20;;
13706;SDS011;6925;47.816;13.072;2023-06-24T07:36:28;5.78;;;2.40;;
13706;SDS011;6925;47.816;13.072;2023-06-24T07:41:22;5.78;;;2.00;;
13706;SDS011;6925;47.816;13.072;2023-06-24T07:46:16;3.40;;;2.10;;
13706;SDS011;6925;47.816;13.072;2023-06-24T07:51:11;5.07;;;2.30;;
13706;SDS011;6925;47.816;13.072;2023-06-24T07:53:38;3.92;;;2.22;;
13706;SDS011;6925;47.816;13.072;2023-06-24T07:56:05;4.05;;;2.33;;
13706;SDS011;6925;47.816;13.072;2023-06-24T08:01:00;3.90;;;2.33;;
13706;SDS011;6925;47.816;13.072;2023-06-24T08:03:27;3.85;;;2.10;;
13706;SDS011;6925;47.816;13.072;2023-06-24T08:05:55;3.75;;;2.10;;
13706;SDS011;6925;47.816;13.072;2023-06-24T08:08:22;4.63;;;2.17;;
13706;SDS011;6925;47.816;13.072;2023-06-24T08:13:16;4.72;;;2.03;;
13706;SDS011;6925;47.816;13.072;2023-06-24T08:18:11;3.65;;;2.05;;
13706;SDS011;6925;47.816;13.072;2023-06-24T08:20:38;4.47;;;1.90;;
13706;SDS011;6925;47.816;13.072;2023-06-24T08:25:34;5.28;;;1.67;;
13706;SDS011;6925;47.816;13.072;2023-06-24T08:28:01;4.25;;;2.08;;
13706;SDS011;6925;47.816;13.072;2023-06-24T08:30:29;5.45;;;1.70;;
13706;SDS011;6925;47.816;13.072;2023-06-24T08:35:22;4.38;;;1.70;;
13706;SDS011;6925;47.816;13.072;2023-06-24T08:37:49;5.20;;;2.05;;
13706;SDS011;6925;47.816;13.072;2023-06-24T08:42:45;3.17;;;1.92;;
13706;SDS011;6925;47.816;13.072;2023-06-24T08:45:12;2.90;;;1.85;;
13706;SDS011;6925;47.816;13.072;2023-06-24T08:47:39;3.88;;;2.08;;
13706;SDS011;6925;47.816;13.072;2023-06-24T08:50:07;3.53;;;2.00;;
13706;SDS011;6925;47.816;13.072;2023-06-24T08:52:38;4.20;;;1.80;;
13706;SDS011;6925;47.816;13.072;2023-06-24T08:55:10;3.00;;;1.75;;
13706;SDS011;6925;47.816;13.072;2023-06-24T08:57:42;3.20;;;2.10;;
13706;SDS011;6925;47.816;13.072;2023-06-24T09:00:09;3.92;;;1.70;;
13706;SDS011;6925;47.816;13.072;2023-06-24T09:02:37;3.00;;;1.30;;
13706;SDS011;6925;47.816;13.072;2023-06-24T09:05:04;3.40;;;1.73;;
13706;SDS011;6925;47.816;13.072;2023-06-24T09:07:31;3.33;;;1.67;;
13706;SDS011;6925;47.816;13.072;2023-06-24T09:09:58;3.05;;;1.70;;
13706;SDS011;6925;47.816;13.072;2023-06-24T09:12:26;3.63;;;1.70;;
13706;SDS011;6925;47.816;13.072;2023-06-24T09:14:55;4.03;;;1.70;;
13706;SDS011;6925;47.816;13.072;2023-06-24T09:17:22;3.38;;;1.70;;
13706;SDS011;6925;47.816;13.072;2023-06-24T09:19:49;3.92;;;1.52;;
13706;SDS011;6925;47.816;13.072;2023-06-24T09:22:17;4.40;;;1.73;;
13706;SDS011;6925;47.816;13.072;2023-06-24T09:24:44;3.20;;;1.80;;
13706;SDS011;6925;47.816;13.072;2023-06-24T09:27:13;4.32;;;1.90;;
13706;SDS011;6925;47.816;13.072;2023-06-24T09:29:40;3.35;;;1.75;;
13706;SDS011;6925;47.816;13.072;2023-06-24T09:32:10;3.10;;;1.83;;
13706;SDS011;6925;47.816;13.072;2023-06-24T09:34:37;3.95;;;1.70;;
13706;SDS011;6925;47.816;13.072;2023-06-24T09:37:04;4.15;;;1.80;;
13706;SDS011;6925;47.816;13.072;2023-06-24T09:39:35;3.53;;;1.73;;
13706;SDS011;6925;47.816;13.072;2023-06-24T09:42:03;3.17;;;1.50;;
13706;SDS011;6925;47.816;13.072;2023-06-24T09:44:33;3.13;;;1.33;;
13706;SDS011;6925;47.816;13.072;2023-06-24T09:47:00;3.13;;;1.70;;
13706;SDS011;6925;47.816;13.072;2023-06-24T09:49:28;3.88;;;1.65;;
13706;SDS011;6925;47.816;13.072;2023-06-24T09:51:56;2.72;;;1.60;;
13706;SDS011;6925;47.816;13.072;2023-06-24T09:54:24;2.70;;;1.40;;
13706;SDS011;6925;47.816;13.072;2023-06-24T09:56:53;3.75;;;1.60;;
13706;SDS011;6925;47.816;13.072;2023-06-24T09:59:23;4.03;;;1.60;;
13706;SDS011;6925;47.816;13.072;2023-06-24T10:01:52;3.88;;;1.55;;
13706;SDS011;6925;47.816;13.072;2023-06-24T10:04:20;4.65;;;1.90;;
13706;SDS011;6925;47.816;13.072;2023-06-24T10:06:49;2.65;;;1.50;;
13706;SDS011;6925;47.816;13.072;2023-06-24T10:09:17;4.93;;;1.92;;
13706;SDS011;6925;47.816;13.072;2023-06-24T10:11:45;2.90;;;1.50;;
13706;SDS011;6925;47.816;13.072;2023-06-24T10:14:13;2.70;;;1.40;;
13706;SDS011;6925;47.816;13.072;2023-06-24T10:16:40;3.47;;;1.60;;
13706;SDS011;6925;47.816;13.072;2023-06-24T10:19:08;4.55;;;1.80;;
13706;SDS011;6925;47.816;13.072;2023-06-24T10:24:14;4.22;;;1.90;;
13706;SDS011;6925;47.816;13.072;2023-06-24T10:27:04;3.97;;;1.65;;
13706;SDS011;6925;47.816;13.072;2023-06-24T10:29:32;3.03;;;1.50;;
13706;SDS011;6925;47.816;13.072;2023-06-24T10:32:02;3.22;;;1.52;;
13706;SDS011;6925;47.816;13.072;2023-06-24T10:34:39;3.08;;;1.75;;
13706;SDS011;6925;47.816;13.072;2023-06-24T10:37:08;3.15;;;1.35;;
13706;SDS011;6925;47.816;13.072;2023-06-24T10:39:39;3.50;;;1.83;;
13706;SDS011;6925;47.816;13.072;2023-06-24T10:45:00;2.63;;;1.35;;
13706;SDS011;6925;47.816;13.072;2023-06-24T10:47:29;3.78;;;1.58;;
13706;SDS011;6925;47.816;13.072;2023-06-24T10:49:56;2.70;;;1.40;;
13706;SDS011;6925;47.816;13.072;2023-06-24T10:52:23;3.03;;;1.67;;
13706;SDS011;6925;47.816;13.072;2023-06-24T10:54:52;3.15;;;1.52;;
13706;SDS011;6925;47.816;13.072;2023-06-24T10:57:20;3.72;;;1.60;;
13706;SDS011;6925;47.816;13.072;2023-06-24T10:59:49;2.83;;;1.48;;
13706;SDS011;6925;47.816;13.072;2023-06-24T11:02:17;3.20;;;1.38;;
13706;SDS011;6925;47.816;13.072;2023-06-24T11:04:45;4.18;;;1.40;;
13706;SDS011;6925;47.816;13.072;2023-06-24T11:07:12;2.72;;;1.45;;
13706;SDS011;6925;47.816;13.072;2023-06-24T11:09:40;2.90;;;1.48;;
13706;SDS011;6925;47.816;13.072;2023-06-24T11:12:10;4.25;;;1.75;;
13706;SDS011;6925;47.816;13.072;2023-06-24T11:14:38;4.05;;;1.50;;
13706;SDS011;6925;47.816;13.072;2023-06-24T11:17:06;2.70;;;1.27;;
13706;SDS011;6925;47.816;13.072;2023-06-24T11:19:33;3.20;;;1.60;;
13706;SDS011;6925;47.816;13.072;2023-06-24T11:22:04;2.58;;;1.40;;
13706;SDS011;6925;47.816;13.072;2023-06-24T11:24:32;3.42;;;1.67;;
13706;SDS011;6925;47.816;13.072;2023-06-24T11:27:00;3.38;;;1.58;;
13706;SDS011;6925;47.816;13.072;2023-06-24T11:29:31;2.78;;;1.50;;
13706;SDS011;6925;47.816;13.072;2023-06-24T11:32:00;3.47;;;1.38;;
13706;SDS011;6925;47.816;13.072;2023-06-24T11:34:28;3.10;;;1.52;;
13706;SDS011;6925;47.816;13.072;2023-06-24T11:36:55;3.30;;;1.65;;
13706;SDS011;6925;47.816;13.072;2023-06-24T11:41:50;3.58;;;1.50;;
13706;SDS011;6925;47.816;13.072;2023-06-24T11:44:18;2.70;;;1.50;;
13706;SDS011;6925;47.816;13.072;2023-06-24T11:46:47;2.58;;;1.50;;
13706;SDS011;6925;47.816;13.072;2023-06-24T11:49:15;3.17;;;1.63;;
13706;SDS011;6925;47.816;13.072;2023-06-24T11:51:46;3.25;;;1.48;;
13706;SDS011;6925;47.816;13.072;2023-06-24T11:54:14;4.65;;;1.70;;
13706;SDS011;6925;47.816;13.072;2023-06-24T11:56:43;4.38;;;1.75;;
13706;SDS011;6925;47.816;13.072;2023-06-24T11:59:17;3.70;;;1.77;;
13706;SDS011;6925;47.816;13.072;2023-06-24T12:01:45;3.00;;;1.45;;
13706;SDS011;6925;47.816;13.072;2023-06-24T12:04:18;3.28;;;1.70;;
13706;SDS011;6925;47.816;13.072;2023-06-24T12:06:45;3.60;;;2.17;;
13706;SDS011;6925;47.816;13.072;2023-06-24T12:09:12;3.10;;;1.40;;
13706;SDS011;6925;47.816;13.072;2023-06-24T12:14:06;3.35;;;1.60;;
13706;SDS011;6925;47.816;13.072;2023-06-24T12:19:01;3.28;;;1.45;;
13706;SDS011;6925;47.816;13.072;2023-06-24T12:21:28;5.47;;;1.77;;
13706;SDS011;6925;47.816;13.072;2023-06-24T12:26:22;3.55;;;1.52;;
13706;SDS011;6925;47.816;13.072;2023-06-24T12:31:16;3.38;;;1.75;;
13706;SDS011;6925;47.816;13.072;2023-06-24T12:36:11;2.65;;;1.40;;
13706;SDS011;6925;47.816;13.072;2023-06-24T12:38:38;3.95;;;1.70;;
13706;SDS011;6925;47.816;13.072;2023-06-24T12:43:32;2.88;;;1.45;;
13706;SDS011;6925;47.816;13.072;2023-06-24T12:45:59;3.17;;;1.50;;
13706;SDS011;6925;47.816;13.072;2023-06-24T12:48:26;3.03;;;1.70;;
13706;SDS011;6925;47.816;13.072;2023-06-24T12:50:53;3.13;;;1.77;;
13706;SDS011;6925;47.816;13.072;2023-06-24T12:53:22;3.88;;;1.60;;
13706;SDS011;6925;47.816;13.072;2023-06-24T12:55:49;4.80;;;1.67;;
13706;SDS011;6925;47.816;13.072;2023-06-24T12:58:18;2.95;;;1.58;;
13706;SDS011;6925;47.816;13.072;2023-06-24T13:00:46;3.60;;;1.67;;
13706;SDS011;6925;47.816;13.072;2023-06-24T13:03:13;2.90;;;1.42;;
13706;SDS011;6925;47.816;13.072;2023-06-24T13:05:40;3.30;;;1.70;;
13706;SDS011;6925;47.816;13.072;2023-06-24T13:08:07;3.08;;;1.27;;
13706;SDS011;6925;47.816;13.072;2023-06-24T13:10:37;3.15;;;1.60;;
13706;SDS011;6925;47.816;13.072;2023-06-24T13:13:04;3.85;;;1.50;;
13706;SDS011;6925;47.816;13.072;2023-06-24T13:15:31;4.15;;;1.40;;
13706;SDS011;6925;47.816;13.072;2023-06-24T13:17:59;4.57;;;1.67;;
13706;SDS011;6925;47.816;13.072;2023-06-24T13:20:26;4.30;;;2.00;;
13706;SDS011;6925;47.816;13.072;2023-06-24T13:22:54;3.65;;;1.85;;
13706;SDS011;6925;47.816;13.072;2023-06-24T13:25:21;2.95;;;1.63;;
13706;SDS011;6925;47.816;13.072;2023-06-24T13:27:49;3.80;;;1.77;;
13706;SDS011;6925;47.816;13.072;2023-06-24T13:30:16;3.20;;;1.70;;
13706;SDS011;6925;47.816;13.072;2023-06-24T13:32:44;4.80;;;2.33;;
13706;SDS011;6925;47.816;13.072;2023-06-24T13:35:11;2.90;;;1.63;;
13706;SDS011;6925;47.816;13.072;2023-06-24T13:37:38;3.50;;;1.80;;
13706;SDS011;6925;47.816;13.072;2023-06-24T13:40:06;2.83;;;1.83;;
13706;SDS011;6925;47.816;13.072;2023-06-24T13:42:34;2.95;;;1.70;;
13706;SDS011;6925;47.816;13.072;2023-06-24T13:45:03;3.65;;;1.70;;
13706;SDS011;6925;47.816;13.072;2023-06-24T13:47:30;4.80;;;2.10;;
13706;SDS011;6925;47.816;13.072;2023-06-24T13:49:57;3.30;;;1.90;;
13706;SDS011;6925;47.816;13.072;2023-06-24T13:52:25;3.60;;;1.90;;
13706;SDS011;6925;47.816;13.072;2023-06-24T13:54:52;3.42;;;1.98;;
13706;SDS011;6925;47.816;13.072;2023-06-24T13:57:19;3.30;;;1.80;;
13706;SDS011;6925;47.816;13.072;2023-06-24T13:59:46;4.72;;;1.83;;
13706;SDS011;6925;47.816;13.072;2023-06-24T14:02:14;3.42;;;2.10;;
13706;SDS011;6925;47.816;13.072;2023-06-24T14:04:42;3.05;;;1.83;;
13706;SDS011;6925;47.816;13.072;2023-06-24T14:07:09;4.22;;;2.58;;
13706;SDS011;6925;47.816;13.072;2023-06-24T14:09:36;3.55;;;1.98;;
13706;SDS011;6925;47.816;13.072;2023-06-24T14:12:04;2.95;;;1.70;;
13706;SDS011;6925;47.816;13.072;2023-06-24T14:14:33;4.50;;;2.05;;
13706;SDS011;6925;47.816;13.072;2023-06-24T14:17:01;3.10;;;1.90;;
13706;SDS011;6925;47.816;13.072;2023-06-24T14:19:30;6.07;;;2.03;;
13706;SDS011;6925;47.816;13.072;2023-06-24T14:21:57;3.15;;;2.10;;
13706;SDS011;6925;47.816;13.072;2023-06-24T14:24:24;5.75;;;2.25;;
13706;SDS011;6925;47.816;13.072;2023-06-24T14:26:51;7.88;;;2.35;;
13706;SDS011;6925;47.816;13.072;2023-06-24T14:29:18;4.38;;;2.13;;
13706;SDS011;6925;47.816;13.072;2023-06-24T14:31:46;3.78;;;2.10;;
13706;SDS011;6925;47.816;13.072;2023-06-24T14:34:13;3.45;;;2.03;;
13706;SDS011;6925;47.816;13.072;2023-06-24T14:36:41;3.78;;;2.08;;
13706;SDS011;6925;47.816;13.072;2023-06-24T14:39:08;3.95;;;2.22;;
13706;SDS011;6925;47.816;13.072;2023-06-24T14:41:35;3.80;;;1.83;;
13706;SDS011;6925;47.816;13.072;2023-06-24T14:44:03;5.35;;;2.42;;
13706;SDS011;6925;47.816;13.072;2023-06-24T14:46:30;4.70;;;2.10;;
13706;SDS011;6925;47.816;13.072;2023-06-24T14:48:57;3.40;;;2.08;;
13706;SDS011;6925;47.816;13.072;2023-06-24T14:51:24;3.20;;;1.83;;
13706;SDS011;6925;47.816;13.072;2023-06-24T14:53:52;3.60;;;1.70;;
13706;SDS011;6925;47.816;13.072;2023-06-24T14:56:20;3.72;;;2.40;;
13706;SDS011;6925;47.816;13.072;2023-06-24T14:58:47;3.53;;;2.13;;
13706;SDS011;6925;47.816;13.072;2023-06-24T15:01:14;3.90;;;2.20;;
13706;SDS011;6925;47.816;13.072;2023-06-24T15:03:41;3.83;;;2.33;;
13706;SDS011;6925;47.816;13.072;2023-06-24T15:06:08;3.03;;;1.90;;
13706;SDS011;6925;47.816;13.072;2023-06-24T15:08:35;3.80;;;2.13;;
13706;SDS011;6925;47.816;13.072;2023-06-24T15:11:03;3.80;;;2.53;;
13706;SDS011;6925;47.816;13.072;2023-06-24T15:13:31;3.75;;;2.50;;
13706;SDS011;6925;47.816;13.072;2023-06-24T15:15:58;3.42;;;1.90;;
13706;SDS011;6925;47.816;13.072;2023-06-24T15:18:25;4.80;;;2.38;;
13706;SDS011;6925;47.816;13.072;2023-06-24T15:20:52;4.10;;;2.40;;
13706;SDS011;6925;47.816;13.072;2023-06-24T15:23:21;4.05;;;2.22;;
13706;SDS011;6925;47.816;13.072;2023-06-24T15:25:48;3.50;;;2.00;;
13706;SDS011;6925;47.816;13.072;2023-06-24T15:28:18;3.72;;;2.30;;
13706;SDS011;6925;47.816;13.072;2023-06-24T15:30:45;3.55;;;2.13;;
13706;SDS011;6925;47.816;13.072;2023-06-24T15:33:13;4.63;;;2.50;;
13706;SDS011;6925;47.816;13.072;2023-06-24T15:35:41;3.45;;;1.90;;
13706;SDS011;6925;47.816;13.072;2023-06-24T15:38:08;4.30;;;2.50;;
13706;SDS011;6925;47.816;13.072;2023-06-24T15:40:35;3.30;;;2.00;;
13706;SDS011;6925;47.816;13.072;2023-06-24T15:43:05;3.95;;;2.22;;
13706;SDS011;6925;47.816;13.072;2023-06-24T15:45:33;4.55;;;2.30;;
13706;SDS011;6925;47.816;13.072;2023-06-24T15:48:02;3.90;;;2.25;;
13706;SDS011;6925;47.816;13.072;2023-06-24T15:50:29;3.90;;;2.40;;
13706;SDS011;6925;47.816;13.072;2023-06-24T15:52:56;3.53;;;2.15;;
13706;SDS011;6925;47.816;13.072;2023-06-24T15:55:23;3.65;;;2.30;;
13706;SDS011;6925;47.816;13.072;2023-06-24T15:57:51;3.47;;;2.13;;
13706;SDS011;6925;47.816;13.072;2023-06-24T16:00:18;4.20;;;2.33;;
13706;SDS011;6925;47.816;13.072;2023-06-24T16:02:46;4.40;;;2.45;;
13706;SDS011;6925;47.816;13.072;2023-06-24T16:05:13;4.47;;;2.47;;
13706;SDS011;6925;47.816;13.072;2023-06-24T16:07:40;3.58;;;2.33;;
13706;SDS011;6925;47.816;13.072;2023-06-24T16:10:08;3.60;;;2.53;;
13706;SDS011;6925;47.816;13.072;2023-06-24T16:12:35;3.67;;;2.30;;